THY6YB EPWA-LTFM
Flight info
| Callsign | THY6YB |
|---|---|
| Flight time | N/A |
| Altitude | 34000 |
| Route | EVINA M985 KOTEK DCT KENIN/N0458F350 DCT KARIL DCT RONBU DCT BUVAK DCT RIXEN RIXEN1N/36 |
| Aircraft | B739/M-SDE2E3FGHIRWXY/LB1 |
Departure
| Time | N/A |
|---|---|
| Airport | Warsaw Chopin Airport (EPWA) |
Arrival
| Time | 2026-05-03 20:27 |
|---|---|
| Airport | İstanbul Airport (LTFM) |
| Time | Latitude | Longitude | Altitude | Speed | Heading |
|---|---|---|---|---|---|
| 2026-05-03 20:15 | 41.17146 | 29.11948 | 9354 ft | 305 kts | 171° |
| 2026-05-03 20:15 | 41.15047 | 29.12158 | 9073 ft | 301 kts | 171° |
| 2026-05-03 20:15 | 41.12967 | 29.12363 | 8801 ft | 298 kts | 171° |
| 2026-05-03 20:15 | 41.10912 | 29.12557 | 8533 ft | 294 kts | 171° |
| 2026-05-03 20:16 | 41.08880 | 29.12745 | 8265 ft | 292 kts | 171° |
| 2026-05-03 20:16 | 41.06844 | 29.12932 | 7785 ft | 296 kts | 171° |
| 2026-05-03 20:16 | 41.04785 | 29.13123 | 7419 ft | 297 kts | 171° |
| 2026-05-03 20:16 | 41.02722 | 29.13311 | 7084 ft | 296 kts | 171° |
| 2026-05-03 20:17 | 41.00679 | 29.13453 | 6835 ft | 293 kts | 178° |
| 2026-05-03 20:17 | 40.98753 | 29.12696 | 6674 ft | 291 kts | 212° |
| 2026-05-03 20:17 | 40.97229 | 29.10968 | 6409 ft | 288 kts | 230° |
| 2026-05-03 20:17 | 40.95961 | 29.08926 | 6106 ft | 286 kts | 233° |
| 2026-05-03 20:18 | 40.94737 | 29.06856 | 5763 ft | 286 kts | 233° |
| 2026-05-03 20:18 | 40.93526 | 29.04805 | 5597 ft | 279 kts | 239° |
| 2026-05-03 20:18 | 40.92906 | 29.02446 | 5310 ft | 271 kts | 277° |
| 2026-05-03 20:18 | 40.93377 | 29.00150 | 5102 ft | 255 kts | 307° |
| 2026-05-03 20:19 | 40.94327 | 28.98175 | 4865 ft | 255 kts | 314° |
| 2026-05-03 20:19 | 40.95405 | 28.96312 | 4611 ft | 254 kts | 316° |
| 2026-05-03 20:19 | 40.96492 | 28.94489 | 4319 ft | 251 kts | 315° |
| 2026-05-03 20:19 | 40.97561 | 28.92685 | 4061 ft | 248 kts | 315° |
| 2026-05-03 20:20 | 40.98615 | 28.90888 | 3993 ft | 248 kts | 315° |
| 2026-05-03 20:20 | 40.99666 | 28.89084 | 3967 ft | 246 kts | 315° |
| 2026-05-03 20:20 | 41.00707 | 28.87285 | 3981 ft | 246 kts | 315° |
| 2026-05-03 20:20 | 41.01743 | 28.85486 | 3957 ft | 246 kts | 315° |
| 2026-05-03 20:21 | 41.02779 | 28.83681 | 3984 ft | 246 kts | 315° |
| 2026-05-03 20:21 | 41.03801 | 28.81894 | 3948 ft | 239 kts | 315° |
| 2026-05-03 20:21 | 41.04782 | 28.80172 | 3949 ft | 227 kts | 315° |
| 2026-05-03 20:21 | 41.05691 | 28.78569 | 3955 ft | 209 kts | 316° |
| 2026-05-03 20:22 | 41.06539 | 28.77093 | 3940 ft | 193 kts | 321° |
| 2026-05-03 20:22 | 41.07585 | 28.76202 | 3893 ft | 174 kts | 358° |
| 2026-05-03 20:22 | 41.08789 | 28.76085 | 3677 ft | 176 kts | 1° |
| 2026-05-03 20:22 | 41.10006 | 28.75987 | 3454 ft | 174 kts | 3° |
| 2026-05-03 20:23 | 41.11191 | 28.75953 | 3235 ft | 171 kts | 4° |
| 2026-05-03 20:23 | 41.12383 | 28.75932 | 3007 ft | 167 kts | 4° |
| 2026-05-03 20:23 | 41.13528 | 28.75910 | 2806 ft | 163 kts | 4° |
| 2026-05-03 20:23 | 41.14655 | 28.75888 | 2599 ft | 165 kts | 3° |
| 2026-05-03 20:24 | 41.15827 | 28.75853 | 2369 ft | 168 kts | 0° |
| 2026-05-03 20:24 | 41.16984 | 28.75814 | 2164 ft | 164 kts | 4° |
| 2026-05-03 20:24 | 41.18143 | 28.75824 | 1928 ft | 168 kts | 2° |
| 2026-05-03 20:24 | 41.19264 | 28.75803 | 1697 ft | 154 kts | 1° |
| 2026-05-03 20:25 | 41.20259 | 28.75782 | 1511 ft | 133 kts | 2° |
| 2026-05-03 20:25 | 41.21121 | 28.75766 | 1360 ft | 119 kts | 2° |
| 2026-05-03 20:25 | 41.21963 | 28.75751 | 1196 ft | 121 kts | 2° |
| 2026-05-03 20:25 | 41.22791 | 28.75736 | 994 ft | 119 kts | 2° |
| 2026-05-03 20:26 | 41.23605 | 28.75720 | 817 ft | 115 kts | 2° |
| 2026-05-03 20:26 | 41.24395 | 28.75697 | 633 ft | 114 kts | 2° |
| 2026-05-03 20:26 | 41.25224 | 28.75681 | 548 ft | 122 kts | 2° |
| 2026-05-03 20:26 | 41.26079 | 28.75668 | 404 ft | 123 kts | 2° |
| 2026-05-03 20:27 | 41.26880 | 28.75656 | 329 ft | 100 kts | 358° |
| 2026-05-03 20:27 | 41.27429 | 28.75644 | 331 ft | 58 kts | 360° |
| 2026-05-03 20:27 | 41.27699 | 28.75641 | 333 ft | 30 kts | 358° |
| 2026-05-03 20:27 | 41.27887 | 28.75633 | 332 ft | 25 kts | 355° |
| 2026-05-03 20:28 | 41.28046 | 28.75565 | 332 ft | 22 kts | 334° |
| 2026-05-03 20:28 | 41.28133 | 28.75499 | 330 ft | 6 kts | 327° |
| 2026-05-03 20:28 | 41.28163 | 28.75461 | 333 ft | 6 kts | 305° |
| 2026-05-03 20:28 | 41.28164 | 28.75409 | 333 ft | 6 kts | 251° |
| 2026-05-03 20:29 | 41.28141 | 28.75364 | 331 ft | 6 kts | 220° |
| 2026-05-03 20:29 | 41.28091 | 28.75349 | 333 ft | 12 kts | 179° |
| 2026-05-03 20:29 | 41.27988 | 28.75351 | 331 ft | 15 kts | 179° |
| 2026-05-03 20:29 | 41.27886 | 28.75354 | 333 ft | 15 kts | 179° |
| 2026-05-03 20:30 | 41.27796 | 28.75357 | 332 ft | 14 kts | 180° |
| 2026-05-03 20:30 | 41.27701 | 28.75357 | 331 ft | 13 kts | 178° |
| 2026-05-03 20:30 | 41.27610 | 28.75361 | 331 ft | 13 kts | 178° |
| 2026-05-03 20:30 | 41.27523 | 28.75361 | 331 ft | 13 kts | 179° |
| 2026-05-03 20:31 | 41.27435 | 28.75363 | 333 ft | 12 kts | 177° |
| 2026-05-03 20:31 | 41.27351 | 28.75366 | 330 ft | 12 kts | 178° |
| 2026-05-03 20:31 | 41.27257 | 28.75369 | 330 ft | 18 kts | 180° |
| 2026-05-03 20:31 | 41.27131 | 28.75372 | 329 ft | 18 kts | 179° |
| 2026-05-03 20:32 | 41.27026 | 28.75373 | 331 ft | 2 kts | 179° |
| 2026-05-03 20:32 | 41.26996 | 28.75374 | 330 ft | 10 kts | 179° |
| 2026-05-03 20:32 | 41.26917 | 28.75375 | 330 ft | 8 kts | 182° |
| 2026-05-03 20:32 | 41.26894 | 28.75316 | 333 ft | 9 kts | 270° |
| 2026-05-03 20:33 | 41.26893 | 28.75204 | 333 ft | 14 kts | 269° |
| 2026-05-03 20:33 | 41.26892 | 28.75077 | 333 ft | 13 kts | 269° |
| 2026-05-03 20:33 | 41.26890 | 28.74955 | 333 ft | 13 kts | 269° |
| 2026-05-03 20:33 | 41.26887 | 28.74851 | 333 ft | 9 kts | 255° |
| 2026-05-03 20:34 | 41.26834 | 28.74828 | 331 ft | 9 kts | 178° |
| 2026-05-03 20:34 | 41.26794 | 28.74829 | 332 ft | 2 kts | 179° |
| 2026-05-03 20:34 | 41.26787 | 28.74829 | 333 ft | 0 kts | 179° |